createdAt,value
2022-08-17T00:00:43.158Z,69.84
2022-08-17T00:03:08.776Z,69.81
2022-08-17T00:05:47.324Z,69.95
2022-08-17T00:08:15.536Z,70.25
2022-08-17T00:10:43.924Z,69.62
2022-08-17T00:13:15.889Z,69.93
2022-08-17T00:15:44.857Z,70.01
2022-08-17T00:19:01.662Z,70.20
2022-08-17T00:21:04.363Z,70.11
2022-08-17T00:23:44.510Z,70.19
2022-08-17T00:26:43.190Z,69.97
2022-08-17T00:29:06.597Z,69.98
2022-08-17T00:31:35.612Z,70.31
2022-08-17T00:34:03.848Z,70.09
2022-08-17T00:36:31.338Z,70.33
2022-08-17T00:38:58.792Z,69.88
2022-08-17T00:41:27.322Z,70.18
2022-08-17T00:43:59.557Z,70.02
2022-08-17T00:46:30.172Z,69.86
2022-08-17T00:48:57.728Z,70.18
2022-08-17T00:51:49.379Z,70.14
2022-08-17T00:54:31.861Z,69.80
2022-08-17T00:57:02.857Z,70.01
2022-08-17T00:59:32.370Z,69.91
2022-08-17T01:01:59.865Z,70.12
2022-08-17T01:04:29.119Z,70.08
2022-08-17T01:06:57.305Z,70.19
2022-08-17T01:09:24.754Z,70.04
2022-08-17T01:11:52.425Z,69.85
2022-08-17T01:14:21.537Z,70.08
2022-08-17T01:16:50.593Z,70.01
2022-08-17T01:19:23.316Z,70.08
2022-08-17T01:21:54.635Z,70.32
2022-08-17T01:24:22.155Z,70.16
2022-08-17T01:26:49.637Z,70.19
2022-08-17T01:29:17.354Z,70.12
2022-08-17T01:31:47.429Z,70.33
2022-08-17T01:34:15.666Z,70.28
2022-08-17T01:36:44.642Z,69.99
2022-08-17T01:39:27.086Z,70.19
2022-08-17T01:42:06.971Z,70.00
2022-08-17T01:44:34.469Z,70.13
2022-08-17T01:47:06.023Z,70.05
2022-08-17T01:49:33.492Z,70.27
2022-08-17T01:52:06.653Z,70.45
2022-08-17T01:54:36.425Z,69.98
2022-08-17T01:57:04.113Z,70.58
2022-08-17T01:59:31.648Z,70.26
2022-08-17T02:01:59.247Z,70.18
2022-08-17T02:04:26.744Z,70.45
2022-08-17T02:06:54.672Z,70.38
2022-08-17T02:09:25.362Z,70.69
2022-08-17T02:11:56.638Z,70.58
2022-08-17T02:14:24.325Z,70.68
2022-08-17T02:16:52.091Z,70.29
2022-08-17T02:19:19.687Z,70.52
2022-08-17T02:21:48.567Z,70.75
2022-08-17T02:24:58.413Z,70.42
2022-08-17T02:27:11.329Z,70.50
2022-08-17T02:29:38.777Z,70.27
2022-08-17T02:32:06.465Z,70.40
2022-08-17T02:34:33.910Z,70.30
2022-08-17T02:37:01.309Z,70.86
2022-08-17T02:39:28.796Z,70.77
2022-08-17T02:42:02.724Z,70.81
2022-08-17T02:44:35.437Z,70.34
2022-08-17T02:47:08.771Z,70.43
2022-08-17T02:49:36.598Z,70.64
2022-08-17T02:52:05.103Z,70.40
2022-08-17T02:54:40.852Z,70.52
2022-08-17T02:57:09.926Z,70.72
2022-08-17T02:59:43.294Z,70.48
2022-08-17T03:02:15.877Z,70.25
2022-08-17T03:04:45.924Z,70.78
2022-08-17T03:07:13.380Z,70.54
2022-08-17T03:09:46.433Z,70.81
2022-08-17T03:12:14.028Z,70.88
2022-08-17T03:14:42.016Z,70.92
2022-08-17T03:17:10.736Z,70.72
2022-08-17T03:19:42.955Z,70.34
2022-08-17T03:22:37.231Z,71.03
2022-08-17T03:24:58.599Z,70.78
2022-08-17T03:27:26.045Z,70.59
2022-08-17T03:29:54.402Z,70.95
2022-08-17T03:32:21.814Z,71.07
2022-08-17T03:34:49.184Z,70.79
2022-08-17T03:37:16.605Z,70.97
2022-08-17T03:39:44.111Z,71.04
2022-08-17T03:42:31.526Z,71.02
2022-08-17T03:45:00.664Z,71.01
2022-08-17T03:47:46.679Z,70.50
2022-08-17T03:50:33.098Z,70.58
2022-08-17T03:53:19.084Z,70.51
2022-08-17T03:56:04.984Z,70.22
2022-08-17T03:58:32.427Z,70.58
2022-08-17T04:00:59.862Z,70.65
2022-08-17T04:03:27.317Z,70.36
2022-08-17T04:05:55.853Z,70.48
2022-08-17T04:08:23.259Z,69.97
2022-08-17T04:10:50.714Z,69.98
2022-08-17T04:13:24.244Z,70.59
2022-08-17T04:15:53.410Z,69.91
2022-08-17T04:18:20.861Z,70.05
2022-08-17T04:20:48.308Z,69.96
2022-08-17T04:23:17.036Z,70.21
2022-08-17T04:25:49.366Z,70.15
2022-08-17T04:28:17.878Z,70.26
2022-08-17T04:30:45.528Z,70.16
2022-08-17T04:33:15.141Z,69.89
2022-08-17T04:35:44.702Z,70.10
2022-08-17T04:38:15.462Z,69.87
2022-08-17T04:41:01.455Z,69.81
2022-08-17T04:43:29.414Z,70.21
2022-08-17T04:45:58.919Z,70.07
2022-08-17T04:48:29.818Z,70.37
2022-08-17T04:51:10.381Z,70.27
2022-08-17T04:53:39.738Z,69.87
2022-08-17T04:56:07.468Z,70.13
2022-08-17T04:58:39.343Z,70.29
2022-08-17T05:01:07.150Z,69.98
2022-08-17T05:03:34.648Z,70.16
2022-08-17T05:06:02.184Z,70.24
2022-08-17T05:08:29.622Z,70.19
2022-08-17T05:10:59.229Z,70.36
2022-08-17T05:13:27.274Z,70.27
2022-08-17T05:15:59.147Z,70.00
2022-08-17T05:18:27.479Z,70.22
2022-08-17T05:20:57.610Z,70.36
2022-08-17T05:23:26.063Z,70.31
2022-08-17T05:25:55.363Z,70.38
2022-08-17T05:28:27.566Z,70.31
2022-08-17T05:30:59.344Z,70.55
2022-08-17T05:33:29.036Z,70.23
2022-08-17T05:35:59.408Z,70.58
2022-08-17T05:38:28.765Z,70.45
2022-08-17T05:40:56.425Z,69.94
2022-08-17T05:43:28.966Z,70.32
2022-08-17T05:46:17.576Z,70.66
2022-08-17T05:48:49.879Z,70.67
2022-08-17T05:51:44.455Z,70.32
2022-08-17T05:54:37.012Z,70.60
2022-08-17T05:57:28.428Z,70.58
2022-08-17T06:00:20.251Z,70.57
2022-08-17T06:03:23.515Z,70.35
2022-08-17T06:06:02.765Z,70.55
2022-08-17T06:08:51.496Z,70.54
2022-08-17T06:11:22.751Z,70.74
2022-08-17T06:14:09.458Z,70.94
2022-08-17T06:16:41.665Z,70.65
2022-08-17T06:19:15.031Z,70.99
2022-08-17T06:21:44.499Z,70.93
2022-08-17T06:24:30.064Z,70.63
2022-08-17T06:27:06.599Z,70.85
2022-08-17T06:29:55.331Z,70.90
2022-08-17T06:32:23.239Z,71.00
2022-08-17T06:34:50.708Z,71.13
2022-08-17T06:37:33.277Z,71.05
2022-08-17T06:40:18.995Z,71.03
2022-08-17T06:43:12.684Z,70.93
2022-08-17T06:46:18.403Z,71.06
2022-08-17T06:49:01.202Z,70.95
2022-08-17T06:51:33.555Z,71.22
2022-08-17T06:54:33.289Z,71.34
2022-08-17T06:57:15.631Z,71.14
2022-08-17T07:00:01.940Z,71.33
2022-08-17T07:02:53.555Z,71.18
2022-08-17T07:05:27.431Z,71.10
2022-08-17T07:08:02.854Z,71.22
2022-08-17T07:10:36.420Z,71.50
2022-08-17T07:13:33.155Z,71.54
2022-08-17T07:16:14.736Z,71.63
2022-08-17T07:18:43.777Z,71.30
2022-08-17T07:21:29.643Z,71.30
2022-08-17T07:24:29.512Z,71.40
2022-08-17T07:27:16.470Z,71.34
2022-08-17T07:30:11.066Z,71.42
2022-08-17T07:32:57.881Z,71.56
2022-08-17T07:35:31.358Z,71.55
2022-08-17T07:38:25.045Z,71.48
2022-08-17T07:41:06.278Z,71.29
2022-08-17T07:43:39.459Z,71.68
2022-08-17T07:46:34.555Z,71.82
2022-08-17T07:49:07.521Z,71.62
2022-08-17T07:51:39.273Z,71.75
2022-08-17T07:54:15.660Z,71.56
2022-08-17T07:56:52.522Z,71.67
2022-08-17T07:59:23.599Z,71.73
2022-08-17T08:01:55.565Z,71.58
2022-08-17T08:07:27.143Z,71.61
2022-08-17T08:10:10.955Z,71.86
2022-08-17T08:12:48.364Z,71.72
2022-08-17T08:15:26.088Z,71.99
2022-08-17T08:18:04.705Z,71.64
2022-08-17T08:20:52.306Z,71.65
2022-08-17T08:23:37.213Z,71.91
2022-08-17T08:26:16.533Z,71.86
2022-08-17T08:28:45.929Z,71.63
2022-08-17T08:31:32.117Z,71.95
2022-08-17T08:34:53.180Z,71.74
2022-08-17T08:37:14.761Z,71.68
2022-08-17T08:40:07.439Z,72.04
2022-08-17T08:42:35.284Z,71.84
2022-08-17T08:45:57.099Z,71.88
2022-08-17T08:49:06.539Z,71.73
2022-08-17T08:52:00.918Z,71.78
2022-08-17T08:54:48.404Z,72.09
2022-08-17T08:57:34.330Z,71.89
2022-08-17T09:00:05.064Z,71.89
2022-08-17T09:02:46.829Z,72.19
2022-08-17T09:05:26.211Z,72.17
2022-08-17T09:08:17.599Z,72.03
2022-08-17T09:10:53.123Z,72.03
2022-08-17T09:13:22.112Z,71.99
2022-08-17T09:15:57.313Z,72.12
2022-08-17T09:19:01.849Z,71.92
2022-08-17T09:21:25.122Z,72.22
2022-08-17T09:24:04.874Z,72.12
2022-08-17T09:26:37.719Z,72.07
2022-08-17T09:29:10.018Z,71.82
2022-08-17T09:31:48.698Z,72.01
2022-08-17T09:34:19.377Z,71.76
2022-08-17T09:37:11.145Z,72.00
2022-08-17T09:39:46.493Z,72.14
2022-08-17T09:42:37.225Z,72.08
2022-08-17T09:45:15.435Z,71.86
2022-08-17T09:47:52.706Z,72.13
2022-08-17T09:51:01.598Z,71.81
2022-08-17T09:53:16.133Z,71.92
2022-08-17T09:55:54.420Z,71.75
2022-08-17T09:58:31.469Z,72.19
2022-08-17T10:01:08.256Z,72.23
2022-08-17T10:03:35.607Z,71.64
2022-08-17T10:06:33.708Z,71.87
2022-08-17T10:09:08.606Z,71.88
2022-08-17T10:12:00.643Z,71.80
2022-08-17T10:14:44.328Z,72.08
2022-08-17T10:17:27.988Z,71.87
2022-08-17T10:20:01.580Z,71.56
2022-08-17T10:23:09.243Z,71.80
2022-08-17T10:26:13.624Z,71.70
2022-08-17T10:28:49.850Z,71.45
2022-08-17T10:31:34.646Z,71.80
2022-08-17T10:34:24.388Z,71.80
2022-08-17T10:37:00.653Z,71.82
2022-08-17T10:39:28.071Z,71.88
2022-08-17T10:41:57.821Z,71.57
2022-08-17T10:44:45.846Z,71.82
2022-08-17T10:47:17.749Z,71.65
2022-08-17T10:49:53.881Z,71.56
2022-08-17T10:52:26.178Z,71.35
2022-08-17T10:54:59.151Z,71.64
2022-08-17T10:57:29.389Z,71.77
2022-08-17T10:59:57.832Z,71.53
2022-08-17T11:02:38.443Z,71.43
2022-08-17T11:05:08.985Z,71.57
2022-08-17T11:08:05.233Z,71.40
2022-08-17T11:10:52.248Z,71.53
2022-08-17T11:13:48.403Z,71.55
2022-08-17T11:16:35.104Z,71.66
2022-08-17T11:19:11.551Z,71.47
2022-08-17T11:21:42.665Z,71.20
2022-08-17T11:24:12.986Z,71.37
2022-08-17T11:26:46.741Z,71.46
2022-08-17T11:29:18.630Z,71.76
2022-08-17T11:31:58.273Z,71.37
2022-08-17T11:34:26.833Z,71.14
2022-08-17T11:36:57.209Z,71.28
2022-08-17T11:39:44.490Z,71.56
2022-08-17T11:42:38.617Z,71.24
2022-08-17T11:45:31.737Z,71.33
2022-08-17T11:48:41.730Z,71.32
2022-08-17T11:51:28.386Z,71.37
2022-08-17T11:54:31.207Z,71.12
2022-08-17T11:56:52.831Z,70.99
2022-08-17T11:59:44.868Z,71.57
2022-08-17T12:02:31.659Z,71.38
2022-08-17T12:05:02.918Z,71.17
2022-08-17T12:07:32.632Z,71.30
2022-08-17T12:10:00.103Z,71.35
2022-08-17T12:12:35.908Z,71.45
2022-08-17T12:15:12.555Z,71.25
2022-08-17T12:17:42.683Z,71.07
2022-08-17T12:20:36.060Z,71.47
2022-08-17T12:23:09.327Z,71.28
2022-08-17T12:25:50.667Z,71.27
2022-08-17T12:28:27.767Z,71.10
2022-08-17T12:30:57.780Z,71.37
2022-08-17T12:33:28.403Z,71.38
2022-08-17T12:36:04.455Z,71.52
2022-08-17T12:38:34.767Z,71.44
2022-08-17T12:41:24.619Z,71.15
2022-08-17T12:44:06.311Z,71.64
2022-08-17T12:46:45.092Z,71.32
2022-08-17T12:49:19.925Z,71.57
2022-08-17T12:51:47.487Z,71.70
2022-08-17T12:54:44.346Z,71.65
2022-08-17T12:57:18.161Z,71.29
2022-08-17T12:59:48.803Z,71.71
2022-08-17T13:02:20.944Z,71.22
2022-08-17T13:04:48.381Z,71.33
2022-08-17T13:07:26.965Z,71.60
2022-08-17T13:09:54.538Z,71.57
2022-08-17T13:12:33.175Z,71.83
2022-08-17T13:15:00.630Z,71.91
2022-08-17T13:17:30.156Z,71.51
2022-08-17T13:19:57.729Z,71.88
2022-08-17T13:22:25.962Z,71.76
2022-08-17T13:24:56.175Z,71.52
2022-08-17T13:27:25.154Z,71.76
2022-08-17T13:29:58.070Z,71.73
2022-08-17T13:32:33.626Z,71.57
2022-08-17T13:35:44.252Z,71.73
2022-08-17T13:38:37.459Z,71.89
2022-08-17T13:41:06.358Z,71.45
2022-08-17T13:43:44.626Z,71.95
2022-08-17T13:46:20.729Z,71.83
2022-08-17T13:49:06.279Z,71.73
2022-08-17T13:51:36.543Z,71.79
2022-08-17T13:54:05.039Z,72.00
2022-08-17T13:56:57.724Z,71.74
2022-08-17T13:59:54.851Z,71.41
2022-08-17T14:02:23.115Z,71.57
2022-08-17T14:04:55.575Z,71.95
2022-08-17T14:07:31.746Z,71.98
2022-08-17T14:10:05.062Z,71.96
2022-08-17T14:12:33.887Z,71.79
2022-08-17T14:15:01.366Z,72.05
2022-08-17T14:17:29.574Z,71.84
2022-08-17T14:19:57.690Z,71.59
2022-08-17T14:22:30.611Z,71.79
2022-08-17T14:24:58.365Z,71.76
2022-08-17T14:27:28.213Z,71.78
2022-08-17T14:29:55.908Z,71.92
2022-08-17T14:32:28.211Z,71.68
2022-08-17T14:34:57.796Z,71.78
2022-08-17T14:37:28.509Z,72.16
2022-08-17T14:39:57.445Z,72.00
2022-08-17T14:42:26.368Z,71.71
2022-08-17T14:44:54.274Z,71.91
2022-08-17T14:47:24.439Z,71.79
2022-08-17T14:49:52.008Z,71.63
2022-08-17T14:52:21.834Z,71.69
2022-08-17T14:54:51.352Z,72.16
2022-08-17T14:57:33.042Z,71.54
2022-08-17T15:00:01.454Z,71.70
2022-08-17T15:02:30.677Z,71.80
2022-08-17T15:05:03.894Z,71.92
2022-08-17T15:07:31.654Z,72.17
2022-08-17T15:10:01.500Z,72.24
2022-08-17T15:12:32.837Z,71.92
2022-08-17T15:15:04.778Z,71.90
2022-08-17T15:17:54.705Z,71.84
2022-08-17T15:20:27.895Z,72.05
2022-08-17T15:22:56.174Z,71.96
2022-08-17T15:25:25.271Z,71.93
2022-08-17T15:27:53.754Z,72.32
2022-08-17T15:30:21.357Z,72.06
2022-08-17T15:32:51.294Z,71.93
2022-08-17T15:35:27.809Z,72.18
2022-08-17T15:38:04.564Z,72.41
2022-08-17T15:40:36.586Z,72.41
2022-08-17T15:43:08.620Z,72.45
2022-08-17T15:45:36.106Z,72.34
2022-08-17T15:48:04.218Z,72.12
2022-08-17T15:50:31.802Z,72.15
2022-08-17T15:52:59.996Z,72.12
2022-08-17T15:55:28.520Z,72.49
2022-08-17T15:57:56.015Z,72.44
2022-08-17T16:00:28.407Z,72.42
2022-08-17T16:03:44.544Z,72.25
2022-08-17T16:05:44.511Z,72.24
2022-08-17T16:08:18.549Z,72.52
2022-08-17T16:10:51.027Z,72.54
2022-08-17T16:13:18.693Z,72.25
2022-08-17T16:15:56.779Z,72.42
2022-08-17T16:18:33.883Z,72.72
2022-08-17T16:21:22.741Z,72.69
2022-08-17T16:23:51.809Z,72.67
2022-08-17T16:26:19.264Z,72.52
2022-08-17T16:28:46.756Z,72.85
2022-08-17T16:31:14.611Z,72.75
2022-08-17T16:33:42.214Z,72.54
2022-08-17T16:36:30.115Z,72.51
2022-08-17T16:39:01.378Z,72.63
2022-08-17T16:41:45.035Z,72.31
2022-08-17T16:44:19.340Z,72.68
2022-08-17T16:46:50.404Z,72.57
2022-08-17T16:49:31.559Z,72.77
2022-08-17T16:52:04.671Z,72.73
2022-08-17T16:54:35.353Z,72.50
2022-08-17T16:57:05.251Z,72.50
2022-08-17T16:59:40.749Z,72.91
2022-08-17T17:02:13.468Z,72.49
2022-08-17T17:04:48.396Z,72.98
2022-08-17T17:07:37.804Z,72.73
2022-08-17T17:10:08.102Z,72.52
2022-08-17T17:13:02.187Z,72.86
2022-08-17T17:15:27.532Z,72.81
2022-08-17T17:17:59.888Z,72.87
2022-08-17T17:20:50.739Z,72.91
2022-08-17T17:23:43.688Z,73.05
2022-08-17T17:26:36.507Z,73.05
2022-08-17T17:29:12.717Z,72.66
2022-08-17T17:31:45.170Z,73.14
2022-08-17T17:34:13.747Z,73.17
2022-08-17T17:36:48.303Z,73.09
2022-08-17T17:39:17.295Z,73.16
2022-08-17T17:42:05.763Z,73.05
2022-08-17T17:44:35.178Z,73.10
2022-08-17T17:47:02.899Z,73.16
2022-08-17T17:49:33.706Z,73.00
2022-08-17T17:52:24.275Z,72.86
2022-08-17T17:55:10.347Z,72.90
2022-08-17T17:58:20.688Z,73.01
2022-08-17T18:01:12.820Z,72.90
2022-08-17T18:03:50.666Z,72.73
2022-08-17T18:06:24.203Z,72.79
2022-08-17T18:09:12.290Z,73.01
2022-08-17T18:12:03.475Z,72.95
2022-08-17T18:15:10.005Z,73.18
2022-08-17T18:17:37.521Z,73.12
2022-08-17T18:20:06.963Z,73.38
2022-08-17T18:22:34.540Z,73.12
2022-08-17T18:25:01.992Z,72.91
2022-08-17T18:27:38.543Z,73.26
2022-08-17T18:30:14.839Z,73.52
2022-08-17T18:32:43.714Z,73.47
2022-08-17T18:35:11.110Z,73.36
2022-08-17T18:37:49.380Z,73.16
2022-08-17T18:40:17.015Z,73.41
2022-08-17T18:43:00.461Z,73.03
2022-08-17T18:45:47.998Z,73.36
2022-08-17T18:48:23.977Z,73.18
2022-08-17T18:50:53.560Z,73.29
2022-08-17T18:53:27.065Z,73.29
2022-08-17T18:56:37.794Z,73.27
2022-08-17T18:59:23.735Z,73.61
2022-08-17T19:01:59.886Z,73.17
2022-08-17T19:05:07.901Z,73.35
2022-08-17T19:07:43.093Z,73.35
2022-08-17T19:10:45.937Z,73.30
2022-08-17T19:13:34.345Z,73.24
2022-08-17T19:16:12.338Z,73.19
2022-08-17T19:18:49.372Z,73.72
2022-08-17T19:21:20.003Z,73.46
2022-08-17T19:23:53.685Z,73.61
2022-08-17T19:26:50.741Z,73.33
2022-08-17T19:29:19.521Z,73.36
2022-08-17T19:31:50.059Z,73.23
2022-08-17T19:34:32.328Z,73.43
2022-08-17T19:37:08.996Z,73.31
2022-08-17T19:39:50.292Z,73.45
2022-08-17T19:42:47.681Z,73.32
2022-08-17T19:45:36.968Z,73.51
2022-08-17T19:48:51.986Z,73.32
2022-08-17T19:51:36.546Z,73.40
2022-08-17T19:54:45.283Z,73.36
2022-08-17T19:57:17.845Z,73.52
2022-08-17T19:59:51.395Z,73.37
2022-08-17T20:02:33.843Z,73.22
2022-08-17T20:05:06.552Z,73.15
2022-08-17T20:07:47.057Z,73.48
2022-08-17T20:10:40.351Z,73.27
2022-08-17T20:13:33.586Z,73.25
2022-08-17T20:16:02.411Z,73.41
2022-08-17T20:18:43.975Z,73.21
2022-08-17T20:21:20.183Z,73.45
2022-08-17T20:24:18.562Z,73.56
2022-08-17T20:26:55.302Z,73.35
2022-08-17T20:29:40.019Z,73.31
2022-08-17T20:32:18.327Z,73.25
2022-08-17T20:34:46.524Z,73.06
2022-08-17T20:37:14.249Z,73.34
2022-08-17T20:39:45.594Z,73.11
2022-08-17T20:42:22.324Z,73.15
2022-08-17T20:44:51.920Z,73.20
2022-08-17T20:47:27.137Z,72.94
2022-08-17T20:50:01.341Z,73.10
2022-08-17T20:52:48.991Z,73.42
2022-08-17T20:55:51.557Z,73.07
2022-08-17T20:58:30.016Z,73.32
2022-08-17T21:00:59.016Z,73.27
2022-08-17T21:03:40.023Z,73.40
2022-08-17T21:06:18.661Z,73.16
2022-08-17T21:08:53.835Z,73.44
2022-08-17T21:11:57.172Z,73.11
2022-08-17T21:14:36.680Z,73.15
2022-08-17T21:17:37.473Z,73.45
2022-08-17T21:20:14.807Z,73.28
2022-08-17T21:23:05.288Z,73.48
2022-08-17T21:26:03.146Z,73.44
2022-08-17T21:29:01.102Z,73.26
2022-08-17T21:31:34.272Z,73.06
2022-08-17T21:34:26.512Z,73.15
2022-08-17T21:36:54.003Z,73.38
2022-08-17T21:39:33.311Z,73.02
2022-08-17T21:42:01.003Z,73.19
2022-08-17T21:44:37.041Z,73.31
2022-08-17T21:47:24.701Z,73.21
2022-08-17T21:49:53.108Z,73.36
2022-08-17T21:52:22.320Z,73.03
2022-08-17T21:54:54.657Z,73.29
2022-08-17T21:57:27.356Z,73.33
2022-08-17T22:00:00.147Z,73.23
2022-08-17T22:02:32.759Z,72.93
2022-08-17T22:05:09.446Z,73.11
2022-08-17T22:07:39.797Z,73.10
2022-08-17T22:10:25.927Z,73.22
2022-08-17T22:13:16.845Z,73.04
2022-08-17T22:15:49.841Z,73.03
2022-08-17T22:18:24.832Z,73.16
2022-08-17T22:20:54.188Z,72.98
2022-08-17T22:23:43.221Z,73.31
2022-08-17T22:26:13.302Z,73.23
2022-08-17T22:28:56.422Z,73.34
2022-08-17T22:31:28.233Z,72.88
2022-08-17T22:33:59.880Z,72.92
2022-08-17T22:36:32.057Z,73.17
2022-08-17T22:39:00.240Z,72.96
2022-08-17T22:41:34.654Z,72.96
2022-08-17T22:44:26.286Z,73.33
2022-08-17T22:46:54.428Z,73.29
2022-08-17T22:49:34.176Z,73.20
2022-08-17T22:52:10.430Z,72.84
2022-08-17T22:54:56.671Z,73.29
2022-08-17T22:57:56.231Z,72.95
2022-08-17T23:00:43.671Z,73.28
2022-08-17T23:03:25.048Z,72.83
2022-08-17T23:06:09.665Z,73.16
2022-08-17T23:09:04.491Z,72.62
2022-08-17T23:11:49.348Z,73.04
2022-08-17T23:14:19.242Z,72.57
2022-08-17T23:16:47.760Z,72.89
2022-08-17T23:19:17.231Z,72.58
2022-08-17T23:21:44.906Z,72.76
2022-08-17T23:24:15.278Z,73.15
2022-08-17T23:26:42.649Z,72.67
2022-08-17T23:29:10.117Z,72.66
2022-08-17T23:31:38.586Z,72.89
2022-08-17T23:34:09.260Z,72.78
2022-08-17T23:36:36.743Z,72.63
2022-08-17T23:39:05.149Z,72.58
2022-08-17T23:41:37.833Z,72.97
2022-08-17T23:44:05.255Z,72.40
2022-08-17T23:46:32.869Z,72.29
2022-08-17T23:49:00.526Z,72.35
2022-08-17T23:51:29.167Z,72.47
2022-08-17T23:53:58.254Z,72.65
2022-08-17T23:56:28.676Z,72.11
2022-08-17T23:58:56.104Z,72.05
